createdAt,value
2023-05-15T00:04:04.341Z,5.50
2023-05-15T00:07:54.676Z,6.50
2023-05-15T00:11:43.718Z,4.80
2023-05-15T00:15:33.009Z,4.50
2023-05-15T00:19:21.968Z,4.50
2023-05-15T00:23:11.146Z,5.50
2023-05-15T00:27:00.224Z,5.10
2023-05-15T00:30:49.416Z,4.70
2023-05-15T00:34:38.446Z,4.60
2023-05-15T00:38:27.565Z,6.00
2023-05-15T00:42:16.605Z,5.20
2023-05-15T00:46:05.766Z,5.50
2023-05-15T00:49:49.628Z,5.90
2023-05-15T00:53:38.589Z,5.40
2023-05-15T00:57:27.822Z,5.20
2023-05-15T01:01:17.084Z,5.00
2023-05-15T01:05:06.153Z,7.50
2023-05-15T01:08:58.093Z,4.60
2023-05-15T01:12:47.126Z,5.50
2023-05-15T01:16:36.229Z,5.20
2023-05-15T01:20:25.277Z,7.20
2023-05-15T01:24:23.244Z,6.50
2023-05-15T01:28:15.632Z,5.00
2023-05-15T01:32:04.717Z,6.60
2023-05-15T01:36:03.743Z,4.10
2023-05-15T01:39:55.634Z,5.30
2023-05-15T01:43:44.744Z,5.50
2023-05-15T01:47:33.793Z,4.00
2023-05-15T01:51:22.942Z,4.80
2023-05-15T01:55:12.033Z,5.80
2023-05-15T01:59:02.216Z,6.20
2023-05-15T02:03:56.814Z,7.00
2023-05-15T02:07:20.435Z,5.90
2023-05-15T02:11:09.559Z,4.60
2023-05-15T02:14:58.705Z,4.60
2023-05-15T02:18:47.881Z,5.10
2023-05-15T02:22:36.995Z,3.90
2023-05-15T02:26:26.064Z,6.10
2023-05-15T02:30:15.073Z,4.50
2023-05-15T02:34:16.445Z,6.20
2023-05-15T02:41:34.324Z,5.00
2023-05-15T02:45:23.618Z,4.90
2023-05-15T02:49:12.909Z,5.00
2023-05-15T02:53:01.957Z,5.00
2023-05-15T02:56:51.109Z,6.60
2023-05-15T03:00:40.221Z,4.90
2023-05-15T03:04:29.318Z,8.80
2023-05-15T03:08:18.429Z,6.60
2023-05-15T03:12:07.415Z,6.70
2023-05-15T03:15:56.581Z,4.20
2023-05-15T03:19:45.745Z,5.00
2023-05-15T03:23:36.422Z,5.10
2023-05-15T03:27:27.303Z,5.00
2023-05-15T03:31:16.446Z,6.80
2023-05-15T03:35:05.580Z,4.70
2023-05-15T03:38:54.733Z,5.50
2023-05-15T03:42:43.933Z,6.70
2023-05-15T03:46:32.894Z,5.40
2023-05-15T03:50:22.057Z,5.40
2023-05-15T03:54:11.100Z,6.70
2023-05-15T03:58:00.352Z,6.80
2023-05-15T04:02:03.589Z,5.40
2023-05-15T04:05:54.421Z,8.70
2023-05-15T04:09:43.648Z,5.10
2023-05-15T04:13:32.850Z,5.30
2023-05-15T04:17:22.082Z,6.00
2023-05-15T04:21:09.902Z,6.50
2023-05-15T04:25:04.062Z,4.50
2023-05-15T04:28:36.031Z,4.00
2023-05-15T04:32:24.891Z,4.00
2023-05-15T04:36:14.081Z,4.90
2023-05-15T04:40:03.216Z,3.90
2023-05-15T04:43:52.359Z,7.10
2023-05-15T04:47:26.482Z,9.60
2023-05-15T04:51:15.715Z,5.70
2023-05-15T04:55:04.496Z,4.00
2023-05-15T04:58:53.225Z,9.60
2023-05-15T05:02:41.953Z,6.60
2023-05-15T05:06:31.069Z,5.30
2023-05-15T05:10:15.929Z,7.90
2023-05-15T05:14:05.038Z,4.80
2023-05-15T05:17:35.486Z,6.40
2023-05-15T05:21:26.779Z,5.30
2023-05-15T05:25:05.984Z,5.90
2023-05-15T05:28:34.918Z,7.10
2023-05-15T05:32:00.782Z,8.30
2023-05-15T05:35:50.101Z,6.10
2023-05-15T05:39:31.860Z,6.90
2023-05-15T05:43:20.943Z,8.90
2023-05-15T05:47:10.059Z,6.50
2023-05-15T05:50:40.836Z,6.70
2023-05-15T05:54:22.797Z,5.40
2023-05-15T05:58:08.538Z,6.20
2023-05-15T06:01:39.429Z,9.20
2023-05-15T06:05:28.610Z,8.20
2023-05-15T06:09:17.801Z,9.20
2023-05-15T06:13:05.897Z,7.70
2023-05-15T06:16:55.139Z,9.90
2023-05-15T06:20:40.640Z,7.40
2023-05-15T06:24:17.113Z,8.90
2023-05-15T06:27:47.779Z,4.50
2023-05-15T06:31:27.499Z,8.10
2023-05-15T06:34:39.679Z,4.10
2023-05-15T06:37:32.015Z,7.80
2023-05-15T06:40:51.038Z,6.10
2023-05-15T06:44:02.265Z,7.10
2023-05-15T06:47:28.307Z,6.20
2023-05-15T06:49:59.701Z,5.50
2023-05-15T06:53:07.499Z,5.80
2023-05-15T06:56:36.351Z,5.80
2023-05-15T06:59:36.751Z,6.50
2023-05-15T07:02:39.593Z,7.80
2023-05-15T07:05:29.648Z,8.50
2023-05-15T07:08:59.045Z,5.70
2023-05-15T07:12:36.557Z,5.70
2023-05-15T07:15:24.461Z,8.60
2023-05-15T07:17:58.220Z,5.20
2023-05-15T07:20:44.517Z,10.40
2023-05-15T07:23:37.368Z,6.10
2023-05-15T07:27:04.116Z,3.10
2023-05-15T07:30:01.314Z,5.00
2023-05-15T07:33:43.093Z,2.80
2023-05-15T07:37:04.928Z,4.00
2023-05-15T07:40:16.144Z,2.90
2023-05-15T07:43:11.078Z,4.60
2023-05-15T07:46:30.079Z,6.60
2023-05-15T07:49:42.484Z,7.00
2023-05-15T07:52:31.493Z,6.90
2023-05-15T07:55:31.218Z,3.90
2023-05-15T07:58:42.801Z,5.90
2023-05-15T08:01:30.666Z,8.40
2023-05-15T08:04:31.125Z,4.30
2023-05-15T08:07:53.125Z,4.30
2023-05-15T08:10:29.699Z,6.50
2023-05-15T08:13:07.162Z,5.50
2023-05-15T08:16:08.226Z,6.50
2023-05-15T08:19:01.629Z,8.00
2023-05-15T08:21:42.777Z,4.90
2023-05-15T08:25:00.963Z,6.00
2023-05-15T08:28:20.049Z,5.10
2023-05-15T08:31:33.196Z,6.50
2023-05-15T08:34:34.383Z,6.20
2023-05-15T08:37:29.118Z,6.80
2023-05-15T08:40:45.433Z,7.70
2023-05-15T08:43:25.917Z,5.10
2023-05-15T08:46:19.672Z,5.10
2023-05-15T08:49:13.583Z,15.40
2023-05-15T08:52:07.316Z,17.10
2023-05-15T08:55:35.181Z,11.70
2023-05-15T08:58:44.020Z,12.70
2023-05-15T09:01:38.862Z,9.30
2023-05-15T09:04:24.451Z,6.00
2023-05-15T09:09:33.239Z,7.50
2023-05-15T09:12:42.283Z,9.30
2023-05-15T09:15:39.392Z,7.50
2023-05-15T09:18:21.015Z,8.00
2023-05-15T09:21:04.611Z,6.90
2023-05-15T09:24:26.276Z,5.50
2023-05-15T09:27:12.296Z,8.20
2023-05-15T09:29:54.482Z,8.20
2023-05-15T09:32:25.386Z,8.80
2023-05-15T09:35:34.209Z,7.70
2023-05-15T09:38:12.563Z,7.10
2023-05-15T09:40:49.407Z,8.90
2023-05-15T09:46:27.972Z,10.90
2023-05-15T09:49:07.163Z,6.40
2023-05-15T09:51:44.666Z,7.30
2023-05-15T09:54:35.452Z,8.00
2023-05-15T09:57:30.027Z,5.10
2023-05-15T10:00:10.194Z,6.50
2023-05-15T10:03:29.754Z,8.90
2023-05-15T10:06:04.879Z,8.10
2023-05-15T10:08:48.654Z,8.20
2023-05-15T10:11:56.111Z,9.50
2023-05-15T10:14:37.551Z,7.00
2023-05-15T10:17:45.212Z,6.90
2023-05-15T10:21:16.186Z,11.80
2023-05-15T10:23:51.130Z,7.40
2023-05-15T10:26:39.672Z,5.90
2023-05-15T10:29:28.260Z,7.30
2023-05-15T10:32:05.711Z,9.20
2023-05-15T10:35:03.683Z,8.80
2023-05-15T10:37:32.360Z,10.90
2023-05-15T10:40:44.913Z,13.10
2023-05-15T10:43:22.943Z,8.50
2023-05-15T10:45:54.375Z,10.20
2023-05-15T10:48:28.606Z,9.20
2023-05-15T10:51:01.416Z,6.20
2023-05-15T10:53:36.665Z,8.10
2023-05-15T10:56:13.973Z,8.40
2023-05-15T10:58:56.868Z,8.20
2023-05-15T11:01:29.707Z,6.80
2023-05-15T11:04:27.773Z,5.90
2023-05-15T11:07:39.807Z,6.90
2023-05-15T11:10:46.632Z,7.40
2023-05-15T11:13:17.662Z,7.70
2023-05-15T11:15:47.047Z,11.30
2023-05-15T11:18:38.811Z,9.20
2023-05-15T11:21:18.962Z,5.30
2023-05-15T11:24:18.742Z,9.20
2023-05-15T11:27:19.823Z,6.10
2023-05-15T11:30:20.704Z,6.90
2023-05-15T11:33:48.868Z,5.40
2023-05-15T11:36:35.760Z,5.00
2023-05-15T11:39:25.154Z,6.60
2023-05-15T11:42:16.230Z,5.70
2023-05-15T11:45:01.732Z,5.80
2023-05-15T11:47:33.353Z,7.10
2023-05-15T11:50:28.804Z,8.70
2023-05-15T11:53:07.309Z,7.90
2023-05-15T11:56:18.673Z,8.90
2023-05-15T11:59:16.543Z,5.20
2023-05-15T12:01:59.639Z,5.30
2023-05-15T12:05:05.898Z,8.70
2023-05-15T12:08:06.788Z,6.20
2023-05-15T12:10:58.795Z,6.10
2023-05-15T12:14:01.570Z,6.80
2023-05-15T12:17:03.074Z,6.20
2023-05-15T12:19:51.678Z,9.30
2023-05-15T12:22:33.727Z,7.70
2023-05-15T12:25:45.777Z,9.40
2023-05-15T12:28:26.771Z,9.00
2023-05-15T12:31:54.639Z,4.40
2023-05-15T12:34:43.398Z,6.50
2023-05-15T12:37:25.071Z,6.20
2023-05-15T12:40:28.071Z,6.30
2023-05-15T12:43:10.550Z,8.70
2023-05-15T12:46:04.500Z,5.40
2023-05-15T12:48:41.748Z,8.30
2023-05-15T12:51:57.982Z,8.30
2023-05-15T12:54:32.917Z,5.50
2023-05-15T12:57:37.947Z,8.10
2023-05-15T13:00:36.000Z,7.40
2023-05-15T13:03:15.382Z,9.40
2023-05-15T13:06:45.833Z,7.90
2023-05-15T13:09:55.901Z,4.60
2023-05-15T13:13:18.238Z,5.50
2023-05-15T13:16:20.843Z,6.50
2023-05-15T13:19:39.684Z,9.20
2023-05-15T13:22:22.494Z,7.10
2023-05-15T13:25:09.920Z,6.80
2023-05-15T13:27:49.293Z,6.10
2023-05-15T13:30:27.993Z,5.30
2023-05-15T13:33:41.886Z,5.40
2023-05-15T13:36:33.444Z,6.30
2023-05-15T13:39:17.171Z,5.70
2023-05-15T13:41:54.177Z,11.20
2023-05-15T13:44:54.025Z,7.10
2023-05-15T13:47:54.739Z,8.00
2023-05-15T13:50:29.059Z,8.20
2023-05-15T13:56:02.304Z,7.40
2023-05-15T13:58:42.711Z,5.80
2023-05-15T14:01:16.666Z,8.10
2023-05-15T14:03:50.334Z,8.20
2023-05-15T14:06:27.859Z,5.40
2023-05-15T14:08:58.928Z,11.10
2023-05-15T14:11:41.158Z,12.00
2023-05-15T14:14:40.986Z,9.20
2023-05-15T14:17:14.988Z,9.10
2023-05-15T14:20:04.427Z,11.60
2023-05-15T14:23:08.600Z,9.00
2023-05-15T14:25:59.032Z,6.40
2023-05-15T14:28:33.029Z,19.70
2023-05-15T14:31:01.560Z,12.90
2023-05-15T14:34:05.886Z,7.00
2023-05-15T14:36:43.690Z,5.70
2023-05-15T14:39:27.267Z,6.10
2023-05-15T14:42:17.381Z,8.80
2023-05-15T14:45:03.193Z,6.80
2023-05-15T14:47:39.825Z,10.40
2023-05-15T14:50:34.046Z,6.60
2023-05-15T14:53:28.333Z,10.60
2023-05-15T14:56:06.408Z,9.20
2023-05-15T14:58:49.231Z,7.70
2023-05-15T15:01:41.059Z,9.20
2023-05-15T15:04:22.913Z,9.10
2023-05-15T15:06:56.920Z,11.40
2023-05-15T15:09:51.743Z,10.70
2023-05-15T15:12:26.937Z,6.90
2023-05-15T15:14:58.599Z,13.60
2023-05-15T15:17:30.186Z,10.30
2023-05-15T15:20:03.217Z,10.50
2023-05-15T15:23:19.158Z,10.20
2023-05-15T15:26:20.588Z,11.60
2023-05-15T15:29:01.068Z,11.10
2023-05-15T15:31:40.351Z,12.60
2023-05-15T15:34:52.220Z,8.20
2023-05-15T15:37:23.321Z,12.30
2023-05-15T15:40:20.768Z,8.80
2023-05-15T15:43:48.352Z,8.10
2023-05-15T15:46:59.770Z,10.60
2023-05-15T15:50:01.497Z,12.20
2023-05-15T15:52:52.280Z,9.00
2023-05-15T15:55:47.006Z,10.70
2023-05-15T15:59:10.669Z,10.30
2023-05-15T16:02:10.978Z,11.20
2023-05-15T16:05:18.473Z,9.80
2023-05-15T16:07:55.729Z,12.80
2023-05-15T16:11:16.467Z,14.60
2023-05-15T16:14:05.133Z,10.40
2023-05-15T16:17:03.905Z,14.40
2023-05-15T16:20:14.371Z,19.30
2023-05-15T16:23:15.787Z,15.10
2023-05-15T16:26:23.932Z,7.90
2023-05-15T16:29:37.435Z,11.60
2023-05-15T16:32:29.205Z,10.50
2023-05-15T16:35:16.281Z,8.60
2023-05-15T16:38:13.338Z,11.30
2023-05-15T16:40:45.159Z,11.60
2023-05-15T16:43:42.278Z,14.30
2023-05-15T16:46:59.994Z,13.30
2023-05-15T16:49:33.634Z,15.20
2023-05-15T16:52:32.526Z,46.40
2023-05-15T16:55:31.001Z,51.20
2023-05-15T16:58:50.854Z,82.40
2023-05-15T17:02:29.127Z,16.90
2023-05-15T17:05:48.014Z,15.00
2023-05-15T17:11:44.916Z,11.20
2023-05-15T17:14:48.264Z,9.90
2023-05-15T17:18:22.869Z,10.90
2023-05-15T17:21:35.166Z,11.40
2023-05-15T17:24:51.382Z,10.00
2023-05-15T17:31:11.484Z,12.20
2023-05-15T17:34:23.354Z,12.60
2023-05-15T17:37:58.580Z,11.80
2023-05-15T17:41:10.209Z,10.60
2023-05-15T17:44:32.155Z,12.90
2023-05-15T17:47:32.404Z,15.10
2023-05-15T17:51:01.586Z,10.90
2023-05-15T17:54:15.074Z,11.50
2023-05-15T17:57:53.924Z,11.20
2023-05-15T18:01:02.853Z,10.90
2023-05-15T18:04:07.446Z,11.30
2023-05-15T18:07:38.834Z,12.00
2023-05-15T18:11:21.444Z,14.60
2023-05-15T18:14:45.939Z,11.10
2023-05-15T18:17:57.711Z,14.10
2023-05-15T18:21:26.962Z,11.80
2023-05-15T18:25:05.201Z,12.30
2023-05-15T18:28:54.298Z,12.80
2023-05-15T18:32:42.841Z,10.60
2023-05-15T18:36:11.186Z,18.10
2023-05-15T18:39:22.981Z,11.90
2023-05-15T18:43:12.007Z,9.70
2023-05-15T18:46:49.732Z,15.50
2023-05-15T18:50:31.665Z,10.20
2023-05-15T18:53:53.496Z,12.40
2023-05-15T18:57:18.449Z,12.90
2023-05-15T19:00:56.434Z,14.00
2023-05-15T19:04:03.713Z,12.50
2023-05-15T19:07:29.644Z,13.40
2023-05-15T19:10:54.428Z,14.60
2023-05-15T19:14:19.688Z,15.40
2023-05-15T19:17:38.670Z,15.80
2023-05-15T19:21:22.241Z,17.60
2023-05-15T19:25:01.275Z,15.30
2023-05-15T19:28:50.449Z,38.80
2023-05-15T19:32:24.356Z,18.60
2023-05-15T19:35:42.267Z,18.40
2023-05-15T19:38:31.875Z,15.70
2023-05-15T19:41:25.117Z,13.80
2023-05-15T19:44:46.364Z,14.70
2023-05-15T19:48:00.715Z,21.80
2023-05-15T19:51:12.739Z,11.90
2023-05-15T19:54:41.583Z,14.90
2023-05-15T19:58:12.846Z,12.00
2023-05-15T20:01:34.424Z,17.70
2023-05-15T20:05:07.729Z,16.70
2023-05-15T20:08:12.343Z,15.80
2023-05-15T20:11:33.834Z,16.40
2023-05-15T20:15:12.032Z,12.60
2023-05-15T20:18:43.724Z,13.50
2023-05-15T20:22:12.221Z,15.40
2023-05-15T20:25:51.962Z,13.60
2023-05-15T20:28:59.961Z,13.30
2023-05-15T20:32:04.947Z,14.60
2023-05-15T20:35:42.873Z,15.20
2023-05-15T20:39:23.338Z,17.50
2023-05-15T20:42:55.549Z,16.30
2023-05-15T20:46:34.288Z,19.60
2023-05-15T20:50:23.799Z,21.20
2023-05-15T20:54:00.450Z,18.90
2023-05-15T20:57:39.980Z,14.30
2023-05-15T21:01:06.027Z,17.30
2023-05-15T21:04:44.123Z,19.00
2023-05-15T21:07:58.560Z,19.00
2023-05-15T21:11:47.754Z,19.60
2023-05-15T21:15:29.558Z,19.70
2023-05-15T21:19:03.899Z,22.80
2023-05-15T21:22:34.440Z,18.90
2023-05-15T21:26:13.702Z,21.00
2023-05-15T21:29:56.774Z,19.20
2023-05-15T21:33:47.753Z,19.20
2023-05-15T21:37:37.204Z,18.30
2023-05-15T21:41:16.486Z,16.60
2023-05-15T21:44:55.621Z,16.80
2023-05-15T21:48:43.670Z,19.80
2023-05-15T21:52:10.865Z,19.50
2023-05-15T21:55:50.079Z,16.80
2023-05-15T21:59:21.169Z,18.10
2023-05-15T22:02:50.435Z,16.30
2023-05-15T22:06:36.206Z,20.90
2023-05-15T22:10:25.531Z,16.80
2023-05-15T22:14:13.422Z,15.90
2023-05-15T22:18:10.911Z,16.40
2023-05-15T22:21:41.990Z,18.30
2023-05-15T22:25:24.294Z,18.60
2023-05-15T22:29:13.475Z,18.20
2023-05-15T22:32:44.454Z,17.60
2023-05-15T22:36:16.801Z,14.20
2023-05-15T22:39:50.988Z,18.50
2023-05-15T22:43:23.290Z,19.60
2023-05-15T22:46:51.469Z,17.10
2023-05-15T22:50:40.436Z,21.30
2023-05-15T22:54:09.743Z,17.80
2023-05-15T22:57:57.422Z,17.00
2023-05-15T23:01:39.629Z,16.50
2023-05-15T23:04:57.479Z,18.60
2023-05-15T23:08:27.447Z,17.60
2023-05-15T23:12:14.884Z,18.70
2023-05-15T23:16:04.294Z,20.20
2023-05-15T23:19:33.356Z,16.80
2023-05-15T23:23:21.584Z,14.80
2023-05-15T23:27:10.801Z,13.60
2023-05-15T23:30:42.746Z,16.20
2023-05-15T23:34:31.787Z,14.70
2023-05-15T23:38:19.773Z,14.40
2023-05-15T23:42:08.887Z,18.60
2023-05-15T23:45:57.979Z,16.00
2023-05-15T23:49:29.797Z,16.70
2023-05-15T23:53:18.849Z,16.70
2023-05-15T23:57:08.010Z,15.10
